Calvert City, KY

11:07 AM CST on February 01, 2015 (GMT -0600)
Kyle-Oakley | Change Station
CLOSE
Current Station
Airport
Location: Murray,
Elevation: 577 ft
Nearby Weather Stations

Elev 577 ft 36.66 °N, 88.37 °W | Updated 12 minutes ago

Rain
Rain
46 °F
Feels Like 41 °F
N
12
Wind Variable Wind from South
Gusts 20 mph

Today
High -- | Low -- °F
--% Chance of Precip.
Yesterday
High -- | Low -- °F
Precip. -- in
6:56 AM 5:18 PM
Waxing Gibbous, 95% visible
Pressure 29.77 in
Visibility 2.5 miles
Clouds Mostly Cloudy 1000 ft
Mostly Cloudy 1400 ft
Mostly Cloudy 2000 ft
Windchill 41 °F
Dew Point 46 °F
Humidity 100%
Rainfall 0.73 in
Snow Depth Not available.
UV 2 out of 12
Pollen .30 out of 12
Air Quality Not available.
Flu Activity Not available.
METAR KCEY 011655Z AUTO 19010G17KT 2 1/2SM BKN010 BKN014 BKN020 08/08 A2977 RMK AO1 P0011

More Conditions Fewer Conditions

Pressure 29.77 in
Visibility 2.5 miles
Clouds Mostly Cloudy 1000 ft
Mostly Cloudy 1400 ft
Mostly Cloudy 2000 ft
Windchill 41 °F
Dew Point 46 °F
Humidity 100%
Rainfall 0.73 in
Snow Depth Not available.
UV 2 out of 12
Pollen .30 out of 12
Air Quality Not available.
Flu Activity Not available.
METAR KCEY 011655Z AUTO 19010G17KT 2 1/2SM BKN010 BKN014 BKN020 08/08 A2977 RMK AO1 P0011

More Conditions Fewer Conditions

10-Day Weather Forecast

Almanac

Astronomy

Feb. 01, 2015 Rise Set
Actual Time
Civil Twilight
Nautical Twilight
Astronomical Twilight
Moon
Length of Visible Light
Length of Day
Tomorrow will be .
, % of the Moon is Illuminated

Today's Extremes

State Highs State Lows

Community

WunderPhotos

Upload Photos

1,792,392 photos uploaded!

WunderBlogs® & News

Nearby

Air Quality

  Air Quality AQ Index Pollutant
Not available.

Snow Depth

Station Depth Elevation

Earthquake Activity

City Distance Mag. Time & Date
Minimum magnitude displayed is 2.5.

Coastal Water Temperatures

Place Temperature

Nearby Weather Stations